CheckWX is a tool to help pilots better visualize weather data.  It is not intended as a substitute for an official pre-flight weather briefing.

16:12:15 UTC

KBOI METAR
Boise Air Terminal / Gowen Field Airport
Boise, Idaho, USA
Current

19 mins ago

KBOI 191553Z 00000KT 7SM BKN055 OVC070 06/02 A2973 RMK AO2 RAB00E29 SLP069 P0000 T00560017
Observed
Nov-19 @ 15:53 UTC
Visibility
7 SM
Flight Rules
VFR
Cloud Levels
  • Broken at 5,500' AGL
  • Overcast at 7,000' AGL
Temperature
C / 43°F
Dewpoint
C / 36°F
Humidity
76%
Altimeter
29.73" Hg
Pressure
1006.82 hPa
Current Rain
0.01"
Previous

1 hour ago

KBOI 191453Z 30017G27KT 7SM OVC070 06/02 A2970 RMK AO2 PK WND 31027/1450 RAB1357E08 PRESRR SLP058 P0000 60001 T00560022 53012
Observed
Nov-19 @ 14:53 UTC
Wind
  • 300° at 17 KTS
  • Gusting to 27 KTS
Visibility
7 SM
Flight Rules
VFR
Cloud Levels
  • Overcast at 7,000' AGL
Temperature
C / 43°F
Dewpoint
C / 36°F
Humidity
76%
Altimeter
29.7" Hg
Pressure
1005.72 hPa
Current Rain
0.01"
Previous

2 hours ago

KBOI 191353Z 00000KT 9SM BKN070 OVC085 07/03 A2964 RMK AO2 RAB07E38 SLP038 P0001 T00670028
Observed
Nov-19 @ 13:53 UTC
Visibility
9 SM
Flight Rules
VFR
Cloud Levels
  • Broken at 7,000' AGL
  • Overcast at 8,500' AGL
Temperature
C / 45°F
Dewpoint
C / 37°F
Humidity
76%
Altimeter
29.64" Hg
Pressure
1003.72 hPa
Current Rain
0.01"